createdAt,value
2023-03-28T00:01:09.220Z,5.30
2023-03-28T00:03:42.712Z,5.28
2023-03-28T00:06:13.960Z,5.29
2023-03-28T00:08:42.082Z,5.27
2023-03-28T00:11:12.891Z,5.26
2023-03-28T00:13:40.454Z,5.24
2023-03-28T00:16:12.982Z,5.22
2023-03-28T00:18:42.890Z,5.18
2023-03-28T00:21:23.831Z,5.24
2023-03-28T00:23:56.492Z,5.22
2023-03-28T00:26:26.759Z,5.17
2023-03-28T00:28:56.861Z,5.15
2023-03-28T00:31:26.573Z,5.11
2023-03-28T00:33:55.005Z,5.11
2023-03-28T00:36:26.822Z,5.08
2023-03-28T00:38:54.754Z,5.06
2023-03-28T00:41:23.865Z,5.08
2023-03-28T00:43:54.748Z,5.03
2023-03-28T00:46:35.596Z,5.03
2023-03-28T00:49:10.025Z,5.00
2023-03-28T00:51:44.173Z,4.97
2023-03-28T00:54:17.397Z,4.93
2023-03-28T00:56:49.230Z,4.91
2023-03-28T00:59:20.242Z,4.91
2023-03-28T01:01:49.173Z,4.90
2023-03-28T01:04:22.276Z,4.86
2023-03-28T01:06:57.305Z,4.84
2023-03-28T01:09:25.148Z,4.83
2023-03-28T01:11:56.979Z,4.80
2023-03-28T01:14:29.164Z,4.80
2023-03-28T01:16:59.188Z,4.81
2023-03-28T01:19:59.205Z,4.87
2023-03-28T01:22:33.046Z,4.80
2023-03-28T01:25:31.496Z,4.82
2023-03-28T01:28:07.961Z,4.80
2023-03-28T01:30:43.684Z,4.74
2023-03-28T01:34:15.113Z,4.80
2023-03-28T01:36:57.585Z,4.77
2023-03-28T01:39:53.238Z,4.78
2023-03-28T01:42:44.182Z,4.87
2023-03-28T01:45:40.515Z,4.74
2023-03-28T01:48:36.075Z,4.72
2023-03-28T01:51:24.733Z,4.62
2023-03-28T01:53:56.334Z,4.60
2023-03-28T01:56:42.432Z,4.63
2023-03-28T01:59:23.173Z,4.64
2023-03-28T02:02:27.575Z,4.62
2023-03-28T02:05:04.625Z,4.61
2023-03-28T02:07:38.589Z,4.59
2023-03-28T02:10:14.087Z,4.55
2023-03-28T02:13:05.558Z,4.56
2023-03-28T02:16:01.934Z,4.52
2023-03-28T02:18:53.132Z,4.52
2023-03-28T02:21:32.111Z,4.51
2023-03-28T02:24:26.138Z,4.51
2023-03-28T02:27:12.365Z,4.50
2023-03-28T02:29:50.383Z,4.49
2023-03-28T02:32:34.197Z,4.49
2023-03-28T02:35:05.455Z,4.47
2023-03-28T02:38:02.123Z,4.54
2023-03-28T02:40:55.339Z,4.46
2023-03-28T02:43:41.900Z,4.55
2023-03-28T02:46:21.034Z,4.55
2023-03-28T02:49:12.367Z,4.57
2023-03-28T02:52:04.182Z,4.56
2023-03-28T02:54:45.906Z,4.57
2023-03-28T02:57:46.422Z,4.52
2023-03-28T03:00:18.841Z,4.53
2023-03-28T03:02:50.613Z,4.56
2023-03-28T03:05:23.317Z,4.54
2023-03-28T03:07:51.643Z,4.51
2023-03-28T03:10:19.332Z,4.50
2023-03-28T03:12:48.612Z,4.50
2023-03-28T03:15:19.294Z,4.50
2023-03-28T03:17:58.918Z,4.53
2023-03-28T03:20:33.713Z,4.53
2023-03-28T03:23:03.787Z,4.49
2023-03-28T03:25:35.146Z,4.52
2023-03-28T03:28:38.249Z,4.52
2023-03-28T03:31:07.336Z,4.54
2023-03-28T03:34:10.443Z,4.57
2023-03-28T03:36:43.332Z,4.56
2023-03-28T03:39:11.124Z,4.61
2023-03-28T03:41:38.995Z,4.66
2023-03-28T03:44:07.338Z,4.74
2023-03-28T03:46:34.966Z,4.78
2023-03-28T03:49:03.056Z,4.85
2023-03-28T03:51:30.738Z,4.87
2023-03-28T03:53:58.515Z,4.93
2023-03-28T03:56:35.098Z,5.01
2023-03-28T03:59:02.738Z,5.09
2023-03-28T04:01:32.623Z,5.19
2023-03-28T04:04:32.544Z,5.32
2023-03-28T04:07:16.253Z,5.42
2023-03-28T04:09:45.816Z,5.55
2023-03-28T04:12:14.670Z,5.73
2023-03-28T04:15:00.538Z,5.88
2023-03-28T04:17:37.915Z,6.07
2023-03-28T04:20:13.913Z,6.27
2023-03-28T04:23:02.074Z,6.53
2023-03-28T04:25:32.042Z,6.66
2023-03-28T04:28:11.449Z,6.84
2023-03-28T04:30:47.545Z,7.08
2023-03-28T04:33:45.454Z,7.33
2023-03-28T04:36:18.886Z,7.57
2023-03-28T04:39:02.444Z,7.85
2023-03-28T04:41:56.632Z,8.14
2023-03-28T04:44:47.228Z,8.38
2023-03-28T04:47:15.335Z,8.58
2023-03-28T04:49:42.833Z,8.81
2023-03-28T04:52:11.243Z,8.98
2023-03-28T04:54:39.314Z,9.26
2023-03-28T04:57:11.789Z,9.50
2023-03-28T04:59:44.535Z,9.67
2023-03-28T05:02:20.318Z,9.76
2023-03-28T05:05:06.957Z,9.88
2023-03-28T05:07:35.245Z,9.84
2023-03-28T05:10:12.866Z,9.88
2023-03-28T05:12:42.066Z,9.88
2023-03-28T05:15:10.542Z,9.88
2023-03-28T05:17:53.081Z,9.92
2023-03-28T05:20:30.184Z,10.30
2023-03-28T05:22:58.368Z,10.50
2023-03-28T05:25:26.136Z,10.37
2023-03-28T05:27:56.040Z,10.52
2023-03-28T05:30:24.879Z,10.74
2023-03-28T05:32:55.474Z,10.84
2023-03-28T05:35:23.197Z,10.87
2023-03-28T05:37:51.662Z,10.95
2023-03-28T05:40:20.337Z,11.03
2023-03-28T05:42:47.856Z,10.88
2023-03-28T05:45:17.454Z,10.70
2023-03-28T05:47:45.025Z,10.46
2023-03-28T05:50:14.190Z,10.49
2023-03-28T05:52:41.650Z,10.53
2023-03-28T05:55:10.456Z,10.61
2023-03-28T05:57:40.142Z,10.68
2023-03-28T06:00:10.731Z,10.64
2023-03-28T06:02:46.818Z,10.62
2023-03-28T06:05:18.481Z,10.59
2023-03-28T06:07:46.852Z,10.70
2023-03-28T06:10:17.314Z,10.69
2023-03-28T06:12:56.378Z,10.75
2023-03-28T06:15:24.145Z,10.61
2023-03-28T06:17:51.929Z,10.61
2023-03-28T06:20:19.746Z,10.68
2023-03-28T06:22:47.904Z,10.76
2023-03-28T06:25:15.694Z,10.85
2023-03-28T06:27:43.198Z,11.07
2023-03-28T06:30:11.690Z,11.21
2023-03-28T06:32:53.362Z,11.45
2023-03-28T06:35:20.955Z,11.71
2023-03-28T06:37:48.789Z,12.00
2023-03-28T06:40:25.270Z,12.37
2023-03-28T06:42:53.605Z,12.61
2023-03-28T06:45:50.566Z,12.96
2023-03-28T06:48:19.683Z,12.97
2023-03-28T06:51:06.239Z,12.84
2023-03-28T06:53:37.771Z,12.94
2023-03-28T06:56:06.716Z,12.96
2023-03-28T06:58:34.312Z,13.07
2023-03-28T07:01:08.361Z,13.37
2023-03-28T07:03:50.714Z,13.67
2023-03-28T07:06:22.414Z,13.99
2023-03-28T07:08:50.236Z,14.22
2023-03-28T07:11:21.613Z,14.40
2023-03-28T07:13:51.209Z,14.52
2023-03-28T07:16:21.074Z,14.56
2023-03-28T07:18:50.137Z,14.54
2023-03-28T07:21:25.614Z,14.47
2023-03-28T07:23:56.244Z,14.31
2023-03-28T07:26:28.667Z,14.04
2023-03-28T07:28:56.534Z,13.72
2023-03-28T07:31:25.824Z,13.53
2023-03-28T07:33:57.789Z,13.25
2023-03-28T07:36:53.353Z,13.25
2023-03-28T07:40:40.500Z,13.08
2023-03-28T07:43:57.067Z,12.89
2023-03-28T07:47:09.740Z,12.64
2023-03-28T07:50:48.522Z,12.12
2023-03-28T07:54:01.892Z,12.15
2023-03-28T07:57:04.381Z,12.18
2023-03-28T08:00:00.923Z,12.27
2023-03-28T08:02:50.535Z,12.64
2023-03-28T08:05:18.684Z,12.95
2023-03-28T08:07:47.146Z,13.14
2023-03-28T08:10:14.736Z,13.27
2023-03-28T08:12:42.960Z,13.47
2023-03-28T08:15:11.482Z,13.71
2023-03-28T08:17:39.202Z,13.80
2023-03-28T08:20:10.159Z,13.73
2023-03-28T08:23:02.984Z,13.85
2023-03-28T08:25:49.245Z,14.00
2023-03-28T08:28:22.320Z,14.12
2023-03-28T08:30:50.409Z,14.37
2023-03-28T08:33:17.866Z,14.62
2023-03-28T08:35:45.542Z,14.61
2023-03-28T08:38:18.683Z,14.56
2023-03-28T08:41:01.037Z,14.37
2023-03-28T08:43:59.389Z,13.94
2023-03-28T08:46:30.973Z,13.74
2023-03-28T08:49:04.474Z,13.55
2023-03-28T08:51:47.646Z,13.48
2023-03-28T08:54:47.803Z,13.24
2023-03-28T08:57:25.508Z,12.90
2023-03-28T09:00:01.236Z,13.21
2023-03-28T09:02:30.147Z,13.67
2023-03-28T09:05:11.948Z,14.12
2023-03-28T09:07:54.879Z,14.87
2023-03-28T09:10:47.371Z,15.68
2023-03-28T09:13:36.216Z,16.13
2023-03-28T09:16:36.602Z,16.57
2023-03-28T09:19:44.724Z,17.23
2023-03-28T09:23:01.015Z,18.31
2023-03-28T09:25:51.661Z,18.73
2023-03-28T09:29:03.628Z,18.94
2023-03-28T09:31:36.039Z,18.14
2023-03-28T09:34:07.144Z,17.52
2023-03-28T09:36:48.897Z,17.19
2023-03-28T09:39:39.542Z,17.74
2023-03-28T09:42:15.362Z,17.76
2023-03-28T09:45:02.793Z,18.02
2023-03-28T09:47:53.533Z,18.12
2023-03-28T09:50:25.664Z,19.58
2023-03-28T09:52:58.753Z,21.12
2023-03-28T09:55:29.257Z,21.55
2023-03-28T09:58:06.772Z,21.89
2023-03-28T10:00:53.359Z,22.93
2023-03-28T10:03:52.748Z,23.56
2023-03-28T10:06:25.904Z,23.46
2023-03-28T10:09:08.551Z,23.63
2023-03-28T10:11:59.386Z,24.51
2023-03-28T10:14:45.249Z,24.77
2023-03-28T10:17:47.088Z,24.73
2023-03-28T10:20:30.760Z,23.85
2023-03-28T10:23:49.457Z,23.39
2023-03-28T10:47:37.245Z,25.03
2023-03-28T10:50:44.855Z,25.87
2023-03-28T10:53:54.916Z,27.29
2023-03-28T10:56:55.929Z,28.14
2023-03-28T11:00:07.105Z,29.27
2023-03-28T11:02:58.954Z,28.92
2023-03-28T11:05:49.884Z,29.00
2023-03-28T11:09:16.916Z,29.44
2023-03-28T11:14:21.779Z,28.90
2023-03-28T11:15:40.536Z,29.67
2023-03-28T11:18:28.053Z,29.15
2023-03-28T11:21:18.842Z,29.93
2023-03-28T11:24:02.901Z,29.84
2023-03-28T11:27:20.517Z,30.89
2023-03-28T11:30:14.741Z,31.80
2023-03-28T11:33:41.047Z,32.39
2023-03-28T11:36:57.482Z,31.27
2023-03-28T11:39:54.414Z,31.21
2023-03-28T11:42:43.296Z,32.19
2023-03-28T11:45:47.666Z,33.19
2023-03-28T11:48:44.616Z,32.79
2023-03-28T11:51:25.264Z,32.25
2023-03-28T11:54:10.824Z,32.16
2023-03-28T11:56:53.385Z,32.05
2023-03-28T12:00:34.023Z,31.74
2023-03-28T12:03:24.498Z,30.59
2023-03-28T12:06:04.774Z,30.76
2023-03-28T12:08:57.822Z,31.71
2023-03-28T12:11:36.824Z,31.27
2023-03-28T12:14:12.633Z,32.35
2023-03-28T12:16:51.116Z,30.55
2023-03-28T12:19:32.026Z,30.68
2023-03-28T12:22:15.917Z,31.25
2023-03-28T12:25:04.212Z,30.64
2023-03-28T12:27:42.970Z,29.33
2023-03-28T12:30:39.257Z,29.78
2023-03-28T12:33:20.349Z,27.80
2023-03-28T12:37:01.946Z,27.13
2023-03-28T12:40:13.366Z,28.96
2023-03-28T12:42:48.950Z,30.58
2023-03-28T12:46:16.634Z,31.55
2023-03-28T12:54:20.789Z,32.60
2023-03-28T13:09:54.944Z,23.19
2023-03-28T13:13:06.538Z,20.97
2023-03-28T13:15:34.800Z,18.87
2023-03-28T13:18:17.661Z,17.70
2023-03-28T13:20:46.231Z,16.38
2023-03-28T13:23:16.708Z,15.86
2023-03-28T13:26:06.537Z,15.52
2023-03-28T13:28:41.472Z,15.01
2023-03-28T13:31:11.811Z,14.66
2023-03-28T13:33:48.566Z,14.44
2023-03-28T13:36:24.052Z,14.29
2023-03-28T13:39:23.999Z,14.21
2023-03-28T13:41:52.228Z,13.79
2023-03-28T13:44:33.963Z,13.63
2023-03-28T13:47:01.677Z,13.35
2023-03-28T13:49:47.232Z,13.18
2023-03-28T13:52:19.361Z,12.79
2023-03-28T13:54:53.977Z,12.67
2023-03-28T13:57:26.131Z,12.61
2023-03-28T14:00:05.276Z,12.49
2023-03-28T14:02:54.763Z,12.42
2023-03-28T14:05:27.424Z,12.20
2023-03-28T14:08:01.550Z,12.06
2023-03-28T14:10:37.235Z,12.02
2023-03-28T14:13:11.113Z,11.93
2023-03-28T14:15:43.306Z,11.82
2023-03-28T14:18:26.057Z,11.76
2023-03-28T14:20:55.836Z,11.59
2023-03-28T14:23:29.868Z,11.51
2023-03-28T14:26:15.838Z,11.41
2023-03-28T14:28:45.949Z,11.20
2023-03-28T14:31:37.124Z,11.17
2023-03-28T14:34:24.359Z,11.04
2023-03-28T14:37:06.508Z,10.99
2023-03-28T14:39:36.678Z,10.91
2023-03-28T14:42:08.523Z,10.88
2023-03-28T14:44:40.653Z,10.79
2023-03-28T14:47:13.508Z,10.69
2023-03-28T14:49:41.324Z,10.64
2023-03-28T14:52:16.405Z,10.61
2023-03-28T14:54:49.415Z,10.52
2023-03-28T14:57:18.401Z,10.45
2023-03-28T14:59:48.794Z,10.37
2023-03-28T15:02:23.370Z,10.29
2023-03-28T15:04:51.596Z,10.25
2023-03-28T15:07:26.720Z,10.17
2023-03-28T15:10:11.289Z,10.13
2023-03-28T15:12:43.704Z,10.04
2023-03-28T15:15:28.202Z,9.99
2023-03-28T15:17:58.663Z,9.91
2023-03-28T15:20:34.349Z,9.88
2023-03-28T15:23:05.936Z,9.85
2023-03-28T15:25:35.765Z,9.81
2023-03-28T15:28:06.758Z,9.79
2023-03-28T15:30:36.222Z,9.77
2023-03-28T15:33:07.079Z,9.76
2023-03-28T15:35:39.670Z,9.71
2023-03-28T15:38:15.606Z,9.65
2023-03-28T15:40:46.617Z,9.63
2023-03-28T15:43:26.036Z,9.64
2023-03-28T15:46:01.714Z,9.48
2023-03-28T15:48:36.353Z,9.44
2023-03-28T15:51:06.534Z,9.39
2023-03-28T15:53:37.354Z,9.35
2023-03-28T15:56:11.390Z,9.34
2023-03-28T15:58:45.116Z,9.24
2023-03-28T16:01:57.498Z,9.24
2023-03-28T16:04:29.122Z,9.19
2023-03-28T16:07:25.515Z,9.21
2023-03-28T16:18:05.904Z,8.98
2023-03-28T16:20:40.947Z,8.96
2023-03-28T16:23:08.525Z,8.90
2023-03-28T16:25:36.284Z,8.82
2023-03-28T16:28:03.963Z,8.86
2023-03-28T16:30:36.974Z,8.83
2023-03-28T16:33:06.444Z,8.80
2023-03-28T16:35:34.200Z,8.76
2023-03-28T16:38:02.517Z,8.72
2023-03-28T16:40:30.220Z,8.69
2023-03-28T16:42:58.622Z,8.64
2023-03-28T16:45:26.184Z,8.61
2023-03-28T16:47:54.058Z,8.57
2023-03-28T16:50:21.640Z,8.58
2023-03-28T16:52:49.116Z,8.61
2023-03-28T16:55:18.192Z,8.56
2023-03-28T16:57:46.532Z,8.54
2023-03-28T17:00:18.188Z,8.55
2023-03-28T17:02:47.616Z,8.55
2023-03-28T17:05:17.150Z,8.51
2023-03-28T17:07:44.824Z,8.49
2023-03-28T17:10:12.531Z,8.50
2023-03-28T17:12:41.484Z,8.50
2023-03-28T17:15:09.649Z,8.44
2023-03-28T17:17:44.807Z,8.47
2023-03-28T17:20:12.907Z,8.47
2023-03-28T17:22:42.566Z,8.48
2023-03-28T17:25:10.194Z,8.50
2023-03-28T17:27:37.766Z,8.48
2023-03-28T17:30:06.298Z,8.45
2023-03-28T17:32:34.765Z,8.47
2023-03-28T17:35:02.418Z,8.48
2023-03-28T17:37:30.425Z,8.49
2023-03-28T17:39:59.162Z,8.45
2023-03-28T17:42:29.631Z,8.42
2023-03-28T17:44:58.941Z,8.44
2023-03-28T17:47:26.633Z,8.43
2023-03-28T17:49:56.208Z,8.41
2023-03-28T17:52:24.735Z,8.40
2023-03-28T17:54:52.745Z,8.35
2023-03-28T17:57:21.516Z,8.39
2023-03-28T17:59:52.156Z,8.42
2023-03-28T18:02:20.344Z,8.36
2023-03-28T18:04:59.117Z,8.34
2023-03-28T18:07:31.204Z,8.36
2023-03-28T18:10:03.419Z,8.33
2023-03-28T18:12:31.321Z,8.37
2023-03-28T18:15:00.949Z,8.39
2023-03-28T18:17:29.748Z,8.40
2023-03-28T18:19:59.001Z,8.42
2023-03-28T18:22:27.285Z,8.39
2023-03-28T18:24:55.109Z,8.41
2023-03-28T18:27:22.760Z,8.39
2023-03-28T18:29:50.521Z,8.42
2023-03-28T18:32:18.371Z,8.42
2023-03-28T18:34:46.872Z,8.40
2023-03-28T18:37:14.576Z,8.41
2023-03-28T18:39:42.539Z,8.38
2023-03-28T18:42:10.754Z,8.33
2023-03-28T18:44:39.061Z,8.33
2023-03-28T18:47:06.709Z,8.28
2023-03-28T18:49:34.781Z,8.26
2023-03-28T18:52:04.962Z,8.27
2023-03-28T18:54:35.245Z,8.26
2023-03-28T18:57:03.494Z,8.25
2023-03-28T19:00:17.340Z,8.30
2023-03-28T19:07:22.653Z,8.02
2023-03-28T19:10:13.505Z,7.94
2023-03-28T19:12:41.301Z,7.90
2023-03-28T19:15:11.120Z,7.89
2023-03-28T19:17:40.179Z,7.88
2023-03-28T19:20:12.809Z,7.82
2023-03-28T19:22:41.418Z,7.82
2023-03-28T19:25:09.535Z,7.77
2023-03-28T19:27:37.791Z,7.79
2023-03-28T19:30:06.605Z,7.76
2023-03-28T19:32:34.290Z,7.73
2023-03-28T19:35:01.925Z,7.66
2023-03-28T19:37:30.804Z,7.63
2023-03-28T19:40:01.411Z,7.61
2023-03-28T19:42:30.207Z,7.55
2023-03-28T19:44:59.833Z,7.57
2023-03-28T19:47:27.341Z,7.57
2023-03-28T19:49:54.959Z,7.52
2023-03-28T19:52:22.474Z,7.61
2023-03-28T19:54:50.778Z,7.57
2023-03-28T19:57:18.322Z,7.64
2023-03-28T19:59:45.883Z,7.66
2023-03-28T20:02:13.471Z,7.65
2023-03-28T20:04:41.106Z,7.68
2023-03-28T20:07:08.601Z,7.68
2023-03-28T20:09:36.098Z,7.73
2023-03-28T20:12:03.893Z,7.70
2023-03-28T20:14:31.705Z,7.67
2023-03-28T20:16:59.297Z,7.73
2023-03-28T20:19:26.839Z,7.76
2023-03-28T20:21:54.367Z,7.74
2023-03-28T20:24:21.822Z,7.73
2023-03-28T20:26:49.470Z,7.68
2023-03-28T20:29:17.144Z,7.69
2023-03-28T20:31:44.639Z,7.66
2023-03-28T20:34:12.268Z,7.65
2023-03-28T20:36:41.523Z,7.65
2023-03-28T20:39:12.046Z,7.60
2023-03-28T20:41:40.203Z,7.57
2023-03-28T20:44:09.060Z,7.57
2023-03-28T20:46:39.833Z,7.51
2023-03-28T20:49:07.972Z,7.53
2023-03-28T20:51:39.468Z,7.46
2023-03-28T20:54:07.145Z,7.52
2023-03-28T20:56:36.854Z,7.47
2023-03-28T20:59:06.019Z,7.53
2023-03-28T21:01:33.820Z,7.56
2023-03-28T21:04:02.372Z,7.53
2023-03-28T21:06:36.111Z,7.58
2023-03-28T21:09:07.146Z,7.61
2023-03-28T21:11:37.191Z,7.65
2023-03-28T21:14:07.244Z,7.67
2023-03-28T21:16:37.549Z,7.65
2023-03-28T21:19:05.923Z,7.65
2023-03-28T21:21:34.389Z,7.54
2023-03-28T21:24:05.022Z,7.50
2023-03-28T21:26:32.681Z,7.48
2023-03-28T21:29:00.198Z,7.42
2023-03-28T21:31:29.613Z,7.37
2023-03-28T21:33:59.250Z,7.36
2023-03-28T21:36:28.024Z,7.33
2023-03-28T21:38:56.984Z,7.33
2023-03-28T21:41:25.126Z,7.33
2023-03-28T21:43:54.670Z,7.31
2023-03-28T21:46:22.938Z,7.33
2023-03-28T21:48:50.567Z,7.32
2023-03-28T21:51:18.269Z,7.33
2023-03-28T21:53:46.050Z,7.36
2023-03-28T21:56:14.883Z,7.39
2023-03-28T21:58:42.818Z,7.41
2023-03-28T22:01:13.894Z,7.39
2023-03-28T22:03:41.847Z,7.34
2023-03-28T22:06:10.307Z,7.28
2023-03-28T22:08:38.626Z,7.19
2023-03-28T22:11:17.937Z,7.28
2023-03-28T22:13:47.424Z,7.20
2023-03-28T22:16:15.547Z,7.16
2023-03-28T22:18:49.928Z,7.19
2023-03-28T22:21:17.993Z,7.18
2023-03-28T22:23:47.746Z,7.18
2023-03-28T22:26:16.079Z,7.12
2023-03-28T22:28:44.205Z,7.16
2023-03-28T22:31:12.503Z,7.11
2023-03-28T22:33:40.064Z,7.11
2023-03-28T22:36:08.162Z,7.09
2023-03-28T22:38:36.737Z,7.13
2023-03-28T22:41:04.655Z,7.14
2023-03-28T22:43:34.043Z,7.03
2023-03-28T22:46:01.577Z,7.03
2023-03-28T22:48:32.126Z,7.00
2023-03-28T22:51:01.690Z,6.99
2023-03-28T22:53:29.597Z,6.92
2023-03-28T22:55:57.800Z,6.90
2023-03-28T22:58:28.619Z,6.89
2023-03-28T23:00:56.128Z,6.91
2023-03-28T23:03:23.955Z,6.92
2023-03-28T23:05:51.851Z,6.91
2023-03-28T23:08:19.506Z,6.92
2023-03-28T23:10:47.528Z,6.94
2023-03-28T23:13:14.986Z,6.96
2023-03-28T23:15:42.575Z,6.96
2023-03-28T23:18:10.087Z,7.01
2023-03-28T23:20:38.330Z,7.00
2023-03-28T23:23:06.856Z,7.03
2023-03-28T23:25:34.698Z,7.05
2023-03-28T23:28:02.130Z,7.08
2023-03-28T23:30:29.597Z,7.14
2023-03-28T23:32:57.047Z,7.19
2023-03-28T23:35:24.562Z,7.18
2023-03-28T23:37:53.315Z,7.18
2023-03-28T23:40:21.144Z,7.24
2023-03-28T23:42:48.822Z,7.21
2023-03-28T23:45:16.697Z,7.30
2023-03-28T23:47:44.545Z,7.34
2023-03-28T23:50:12.971Z,7.35
2023-03-28T23:52:40.489Z,7.44
2023-03-28T23:55:10.749Z,7.45
2023-03-28T23:57:38.285Z,7.50
